Pickaway, West Virginia
Current Conditions -  °F | °C
As of 11:15 AM on Wednesday 22 Oct 2014 (Local Time) from KLWB Reporting Station
Overcast Overcast  
Wind Chill: 44°   Ceiling: 2100
Heat Index: 48°   Visibility: 10mi
Dew Point: 40°   Wind: 10mph
Humidity: 72%   Direction: 320°NW
Pressure: 30.11"   Gusts: NA
Location:  37.669°N, 80.524°W
Report Text: KLWB 221515Z AUTO 32009KT 10SM OVC021 09/04 A3011 RMK AO2 T00900042
Loading
Personal Weather Stations






























Interactive Weather Map
Tropical Storm Tracking
New forecast layout! Learn more

10-Day Weather Forecast

Advertisements
Track Severe Weather on mobile